Terminal Aerodrome Forecast
Issued by NWS

Home | Current Version | Previous Version | Text Only | Print | Product List | Glossary On
Versions: 1 2 3 4 5 6 7 8 9 10 11 12 13 14 15 16 17 18
000
FTUS44 KLZK 052320
TAFPBF
TAF
KPBF 052320Z 0600/0624 03008KT P6SM VCSH OVC010
     FM060200 VRB05KT 3SM -RA BR VCTS BKN008 OVC012CB
      TEMPO 0604/0608 3/4SM SHRA BR OVC005
     FM060900 32007KT 2SM BR VCSH OVC008
     FM061200 32007KT 4SM -DZ BR OVC007
     FM062000 35010KT P6SM SCT015 OVC100=

USA.gov is the U.S. government's official web portal to all federal, state and local government web resources and services.